Aeroporto :
LOGIN :

Iscrizione | Disclaimer

   EN    FR    IT 

 










Sommario :    VFR   VFR Marginale   IFR   IFR Intensivo   IFR Molto Intensivo
Visibilità : 
Base nubi : 
>= 8 km
>= 3000ft
5 / 8 km
1000 / 3000 ft
1500m / 5 km
500 / 1000 ft
800 / 1500m
200 / 500 ft
< 800m
< 200 ft
Simboli :   Temporali  Nebbia  Neve Forte  Precipitazioni Forti  Vento > 20 kt
SIGMETs :   Varie  Temporali  Ghiacco  Turbolenza  Onda orograficha  Ceneri Vulcaniche






- Altitudine del aeroporto : 681 ft
- Codice IATA : LBA


EGNM - Leeds Bradford

ULTIMO METAR :
  • 271750Z 27014KT 9999 FEW019 02/M00 Q1005

METARs OBSOLETI :
  • 271720Z 27014KT 9999 FEW024 03/M00 Q1005
  • 271650Z 27016KT 9999 FEW024 03/00 Q1005
  • 271620Z 27017KT 9999 FEW024CB 03/00 Q1004
  • 271550Z 27019KT 9999 FEW023 04/M01 Q1003
  • 271520Z 27021KT 9999 FEW026 04/00 Q1003
  • 271450Z 28022G34KT 9999 FEW026 05/M02 Q1002

TAF TAF EGNM
Valido dal 27 a 18 ore il 28 a 18 ore UTC


271657Z 2718/2818 28015KT 9999 FEW020
PROB30
TEMPO 2718/2721 30018G28KT
BECMG 2800/2803 22008KT
BECMG 2809/2812 16012KT
TEMPO 2809/2818 8000 -RA BKN008
PROB40
TEMPO 2810/2818 4000 RADZ BKN004
PROB40
TEMPO 2812/2816 15016G26KT
ATIS : +44 113 250 9696 (x2489)



MetMap, La meteo Aeronautica in un colpo d'occhio ! - Copyright ORBIFLY Dicembre 2007 - Disclaimer

ORBIFLY MET'MAP TEAM :

Programmazione e sviluppo : Alexandra Zaïnal
Concezione : Baudouin d'Aumeries
Aiuto per la programmazione : Marc-Olivier Méhu
Supporto tecnico e logistico : Manuel Goepfert
Aiuto per la traduzione : Arnaldo La Scala

Contatto : metmap@orbifly.com




FONTI E CREDITI :

   NOAA